Time;durP1;ratioP1;P1;durP2;ratioP2;P2;SDS_P1;SDS_P2;PMS_P1;PMS_P2;Temp;Humidity;BMP_temperature;BMP_pressure;BME280_temperature;BME280_humidity;BME280_pressure;Samples;Min_cycle;Max_cycle;Signal;HPM_P1;HPM_P2
2021/04/17 00:02:03;;;;;;;3.05;1.30;;;;;;;;;;5047351;28;20044;-60
2021/04/17 00:04:32;;;;;;;5.05;2.47;;;;;;;;;;5046174;28;20032;-60
2021/04/17 00:06:58;;;;;;;5.05;2.05;;;;;;;;;;5043337;28;20051;-60
2021/04/17 00:09:27;;;;;;;4.78;2.10;;;;;;;;;;5044909;28;20163;-59
2021/04/17 00:11:54;;;;;;;3.05;1.65;;;;;;;;;;5041466;28;20048;-59
2021/04/17 00:14:24;;;;;;;5.85;1.95;;;;;;;;;;5041820;28;20071;-59
2021/04/17 00:16:55;;;;;;;3.35;1.35;;;;;;;;;;5043057;28;20036;-59
2021/04/17 00:19:21;;;;;;;2.33;1.67;;;;;;;;;;5044004;28;20052;-59
2021/04/17 00:21:49;;;;;;;4.03;2.03;;;;;;;;;;5044467;28;20123;-60
2021/04/17 00:24:15;;;;;;;6.88;1.73;;;;;;;;;;5044201;28;20078;-60
2021/04/17 00:26:43;;;;;;;5.60;2.00;;;;;;;;;;5045499;28;20481;-60
2021/04/17 00:29:11;;;;;;;3.15;1.58;;;;;;;;;;5028995;28;20037;-60
2021/04/17 00:31:37;;;;;;;1.77;1.65;;;;;;;;;;5040007;28;20039;-61
2021/04/17 00:34:06;;;;;;;5.65;1.95;;;;;;;;;;5027076;28;20581;-60
2021/04/17 00:36:34;;;;;;;5.78;1.60;;;;;;;;;;5042888;28;20071;-60
2021/04/17 00:39:02;;;;;;;3.17;1.67;;;;;;;;;;5059185;28;20120;-60
2021/04/17 00:41:28;;;;;;;7.68;2.15;;;;;;;;;;5036601;28;20043;-60
2021/04/17 00:43:59;;;;;;;4.20;1.38;;;;;;;;;;5043612;28;20048;-60
2021/04/17 00:46:25;;;;;;;4.68;1.85;;;;;;;;;;5042611;28;20032;-60
2021/04/17 00:48:51;;;;;;;2.10;1.40;;;;;;;;;;5043200;28;20036;-60
2021/04/17 00:51:19;;;;;;;3.30;1.42;;;;;;;;;;5041801;28;20028;-60
2021/04/17 00:53:45;;;;;;;2.47;1.45;;;;;;;;;;5043425;28;20040;-60
2021/04/17 00:56:11;;;;;;;4.43;1.67;;;;;;;;;;5042543;28;20170;-59
2021/04/17 00:58:42;;;;;;;2.65;1.60;;;;;;;;;;5042807;28;20043;-59
2021/04/17 01:01:10;;;;;;;2.65;1.85;;;;;;;;;;5043569;28;20044;-60
2021/04/17 01:03:37;;;;;;;6.28;1.60;;;;;;;;;;5026108;28;20057;-61
2021/04/17 01:06:05;;;;;;;1.38;1.23;;;;;;;;;;5032493;28;20040;-60
2021/04/17 01:08:52;;;;;;;1.83;1.00;;;;;;;;;;5051200;28;20025;-61
2021/04/17 01:11:27;;;;;;;3.85;1.05;;;;;;;;;;5044043;28;20036;-61
2021/04/17 01:13:54;;;;;;;2.20;1.13;;;;;;;;;;5048013;28;20035;-59
2021/04/17 01:16:21;;;;;;;3.90;1.35;;;;;;;;;;5045940;28;20459;-61
2021/04/17 01:18:47;;;;;;;1.25;1.13;;;;;;;;;;5045537;28;20029;-59
2021/04/17 01:21:15;;;;;;;1.73;0.95;;;;;;;;;;5046553;28;20033;-60
2021/04/17 01:23:45;;;;;;;2.38;1.35;;;;;;;;;;5046896;28;20372;-60
2021/04/17 01:26:13;;;;;;;4.43;1.33;;;;;;;;;;5044820;28;20024;-60
2021/04/17 01:28:43;;;;;;;2.03;1.50;;;;;;;;;;5038088;28;20024;-61
2021/04/17 01:31:13;;;;;;;4.70;1.20;;;;;;;;;;5046500;28;20040;-61
2021/04/17 01:33:40;;;;;;;1.95;1.38;;;;;;;;;;5047904;28;20730;-58
2021/04/17 01:36:09;;;;;;;2.70;1.17;;;;;;;;;;5045544;28;20048;-60
2021/04/17 01:38:49;;;;;;;1.92;1.17;;;;;;;;;;5043561;28;20771;-60
2021/04/17 01:41:20;;;;;;;5.38;1.35;;;;;;;;;;5045022;28;20443;-60
2021/04/17 01:43:50;;;;;;;3.38;1.17;;;;;;;;;;5049228;28;20035;-61
2021/04/17 01:46:21;;;;;;;4.35;1.02;;;;;;;;;;5045493;28;20027;-60
2021/04/17 01:48:47;;;;;;;3.72;1.10;;;;;;;;;;5047019;28;20100;-61
2021/04/17 01:51:15;;;;;;;2.47;1.45;;;;;;;;;;5047948;28;20031;-61
2021/04/17 01:53:44;;;;;;;1.73;1.13;;;;;;;;;;5045316;28;20131;-60
2021/04/17 01:56:10;;;;;;;3.88;1.50;;;;;;;;;;5048297;28;20044;-60
2021/04/17 01:58:37;;;;;;;1.92;1.38;;;;;;;;;;5046736;28;20024;-60
2021/04/17 02:01:03;;;;;;;2.72;1.23;;;;;;;;;;5044430;28;20025;-60
2021/04/17 02:03:31;;;;;;;1.35;0.98;;;;;;;;;;5047164;28;20045;-59
2021/04/17 02:05:56;;;;;;;2.90;1.45;;;;;;;;;;5046437;28;20029;-59
2021/04/17 02:08:25;;;;;;;1.70;0.88;;;;;;;;;;5045946;28;20118;-60
2021/04/17 02:10:55;;;;;;;1.67;1.20;;;;;;;;;;5047054;28;20032;-60
2021/04/17 02:13:21;;;;;;;4.32;1.45;;;;;;;;;;5037721;28;20052;-60
2021/04/17 02:15:47;;;;;;;4.10;1.25;;;;;;;;;;5045611;28;20079;-60
2021/04/17 02:18:18;;;;;;;5.07;1.45;;;;;;;;;;5043897;28;20095;-60
2021/04/17 02:20:49;;;;;;;2.45;1.30;;;;;;;;;;5048386;28;20046;-61
2021/04/17 02:23:14;;;;;;;1.52;1.20;;;;;;;;;;5040672;28;20651;-60
2021/04/17 02:25:40;;;;;;;2.40;1.05;;;;;;;;;;5033165;28;20044;-60
2021/04/17 02:28:08;;;;;;;4.05;1.55;;;;;;;;;;5047709;28;20033;-61
2021/04/17 02:30:37;;;;;;;1.25;0.93;;;;;;;;;;5045564;28;20109;-59
2021/04/17 02:33:02;;;;;;;9.50;1.42;;;;;;;;;;5030506;28;20136;-62
2021/04/17 02:35:30;;;;;;;1.00;0.90;;;;;;;;;;5031154;28;20388;-60
2021/04/17 02:37:56;;;;;;;5.75;2.05;;;;;;;;;;5045776;28;20074;-60
2021/04/17 02:40:22;;;;;;;5.13;1.40;;;;;;;;;;5043372;28;20028;-60
2021/04/17 02:42:48;;;;;;;6.60;1.25;;;;;;;;;;5029932;28;20032;-60
2021/04/17 02:45:13;;;;;;;2.38;0.93;;;;;;;;;;5030509;28;20045;-60
2021/04/17 02:47:41;;;;;;;4.18;1.25;;;;;;;;;;5044123;28;20032;-60
2021/04/17 02:50:09;;;;;;;0.82;0.80;;;;;;;;;;5047827;28;20051;-60
2021/04/17 02:52:36;;;;;;;1.33;1.20;;;;;;;;;;5028521;28;21299;-61
2021/04/17 02:55:02;;;;;;;0.80;0.80;;;;;;;;;;5043186;28;20037;-61
2021/04/17 02:57:32;;;;;;;6.32;2.53;;;;;;;;;;5047024;28;20037;-61
2021/04/17 02:59:58;;;;;;;8.68;1.40;;;;;;;;;;5045635;28;20117;-60
2021/04/17 03:02:26;;;;;;;2.72;1.15;;;;;;;;;;5031169;28;20036;-60
2021/04/17 03:04:54;;;;;;;25.75;1.30;;;;;;;;;;5045658;28;20050;-61
2021/04/17 03:07:20;;;;;;;5.18;1.15;;;;;;;;;;5045350;28;20036;-60
2021/04/17 03:09:48;;;;;;;4.43;1.30;;;;;;;;;;5044786;28;20969;-60
2021/04/17 03:12:15;;;;;;;1.90;1.20;;;;;;;;;;5043978;28;20041;-60
2021/04/17 03:14:46;;;;;;;1.95;1.10;;;;;;;;;;5044664;28;20028;-60
2021/04/17 03:17:16;;;;;;;1.23;1.10;;;;;;;;;;5010489;28;20260;-60
2021/04/17 03:19:42;;;;;;;3.63;1.42;;;;;;;;;;5043659;28;20037;-60
2021/04/17 03:22:07;;;;;;;0.95;0.70;;;;;;;;;;5042862;28;20043;-60
2021/04/17 03:24:34;;;;;;;1.52;1.25;;;;;;;;;;5046243;28;20024;-60
2021/04/17 03:27:03;;;;;;;4.35;1.60;;;;;;;;;;5044565;28;20032;-61
2021/04/17 03:29:28;;;;;;;1.95;1.40;;;;;;;;;;5045053;28;20032;-60
2021/04/17 03:31:56;;;;;;;3.78;1.25;;;;;;;;;;5028182;28;20388;-61
2021/04/17 03:34:24;;;;;;;3.95;1.42;;;;;;;;;;5045619;28;20463;-60
2021/04/17 03:36:50;;;;;;;4.13;1.30;;;;;;;;;;5027711;28;20037;-60
2021/04/17 03:39:16;;;;;;;3.17;1.40;;;;;;;;;;5048074;28;20031;-61
2021/04/17 03:41:42;;;;;;;2.17;1.00;;;;;;;;;;5045580;28;20082;-60
2021/04/17 03:44:10;;;;;;;1.95;1.60;;;;;;;;;;5042655;28;20032;-61
2021/04/17 03:46:38;;;;;;;2.65;1.20;;;;;;;;;;5041657;28;20033;-60
2021/04/17 03:49:03;;;;;;;2.50;1.52;;;;;;;;;;5045376;28;20050;-60
2021/04/17 03:51:31;;;;;;;4.03;1.25;;;;;;;;;;5029879;28;21245;-62
2021/04/17 03:54:00;;;;;;;7.13;1.08;;;;;;;;;;5043579;28;20024;-60
2021/04/17 03:56:25;;;;;;;4.70;1.48;;;;;;;;;;5041113;28;20051;-60
2021/04/17 03:58:51;;;;;;;7.25;1.70;;;;;;;;;;5043264;28;20151;-59
2021/04/17 04:01:19;;;;;;;9.75;1.80;;;;;;;;;;5037616;28;20127;-62
2021/04/17 04:03:44;;;;;;;11.70;1.17;;;;;;;;;;5044387;28;20941;-59
2021/04/17 04:06:12;;;;;;;3.30;1.17;;;;;;;;;;5043055;28;20058;-61
2021/04/17 04:08:40;;;;;;;5.10;1.83;;;;;;;;;;5044505;28;20066;-60
2021/04/17 04:11:08;;;;;;;3.88;0.93;;;;;;;;;;5042721;28;20076;-61
2021/04/17 04:13:36;;;;;;;7.80;1.58;;;;;;;;;;5046673;28;20151;-61
2021/04/17 04:16:02;;;;;;;3.45;1.13;;;;;;;;;;5041793;28;20229;-60
2021/04/17 04:18:30;;;;;;;2.35;1.00;;;;;;;;;;5044089;28;21574;-61
2021/04/17 04:20:56;;;;;;;3.45;1.58;;;;;;;;;;5044557;28;20662;-61
2021/04/17 04:23:23;;;;;;;3.88;1.08;;;;;;;;;;5026653;28;20048;-60
2021/04/17 04:25:53;;;;;;;2.90;1.63;;;;;;;;;;5042397;28;22026;-60
2021/04/17 04:28:19;;;;;;;8.00;1.30;;;;;;;;;;5012742;28;20041;-60
2021/04/17 04:30:45;;;;;;;2.63;1.20;;;;;;;;;;5044181;28;20028;-60
2021/04/17 04:33:10;;;;;;;2.85;1.50;;;;;;;;;;5043736;28;20060;-61
2021/04/17 04:35:38;;;;;;;3.05;1.40;;;;;;;;;;5043527;28;20020;-61
2021/04/17 04:38:08;;;;;;;6.88;1.58;;;;;;;;;;5044805;28;20180;-61
2021/04/17 04:40:36;;;;;;;2.50;1.05;;;;;;;;;;5045555;28;20040;-61
2021/04/17 04:43:04;;;;;;;4.32;1.23;;;;;;;;;;5044010;28;20097;-61
2021/04/17 04:45:31;;;;;;;1.80;1.35;;;;;;;;;;5041997;28;20040;-61
2021/04/17 04:47:56;;;;;;;3.70;1.13;;;;;;;;;;5029565;28;20024;-61
2021/04/17 04:50:23;;;;;;;5.25;1.30;;;;;;;;;;5047558;28;20058;-61
2021/04/17 04:52:50;;;;;;;6.68;2.13;;;;;;;;;;5015244;28;20044;-62
2021/04/17 04:55:16;;;;;;;7.43;1.33;;;;;;;;;;5048773;28;20056;-61
2021/04/17 04:57:42;;;;;;;1.13;0.77;;;;;;;;;;5029347;28;20576;-61
2021/04/17 05:00:10;;;;;;;7.03;1.67;;;;;;;;;;5046755;28;20043;-60
2021/04/17 05:02:35;;;;;;;9.52;2.17;;;;;;;;;;5034234;28;20043;-61
2021/04/17 05:05:01;;;;;;;6.45;1.60;;;;;;;;;;5030858;28;20037;-61
2021/04/17 05:07:29;;;;;;;3.08;1.50;;;;;;;;;;5045144;28;20623;-60
2021/04/17 05:09:55;;;;;;;3.22;1.67;;;;;;;;;;5029907;28;20493;-61
2021/04/17 05:12:20;;;;;;;7.00;1.90;;;;;;;;;;5046875;28;20164;-60
2021/04/17 05:14:46;;;;;;;9.07;1.73;;;;;;;;;;5045925;28;20438;-61
2021/04/17 05:17:19;;;;;;;4.35;1.20;;;;;;;;;;5014940;28;20056;-62
2021/04/17 05:19:45;;;;;;;5.80;2.05;;;;;;;;;;5029378;28;20178;-60
2021/04/17 05:22:15;;;;;;;5.72;1.67;;;;;;;;;;5031572;28;20429;-60
2021/04/17 05:24:40;;;;;;;9.98;1.98;;;;;;;;;;5046417;28;21523;-60
2021/04/17 05:27:06;;;;;;;3.72;1.70;;;;;;;;;;5044019;28;20032;-61
2021/04/17 05:29:31;;;;;;;3.00;1.27;;;;;;;;;;5046721;28;20028;-60
2021/04/17 05:31:57;;;;;;;9.50;2.10;;;;;;;;;;5030662;28;20747;-61
2021/04/17 05:34:22;;;;;;;3.80;1.38;;;;;;;;;;5029515;28;20048;-61
2021/04/17 05:36:50;;;;;;;6.47;1.52;;;;;;;;;;5044290;28;20045;-62
2021/04/17 05:39:15;;;;;;;8.07;2.15;;;;;;;;;;5014656;28;20043;-60
2021/04/17 05:41:41;;;;;;;6.22;2.20;;;;;;;;;;5043142;28;20037;-62
2021/04/17 05:44:11;;;;;;;6.85;1.92;;;;;;;;;;5040037;28;20055;-61
2021/04/17 05:46:38;;;;;;;6.55;1.60;;;;;;;;;;5044169;28;20117;-62
2021/04/17 05:49:04;;;;;;;6.07;2.38;;;;;;;;;;5045620;28;20029;-62
2021/04/17 05:51:33;;;;;;;4.35;1.85;;;;;;;;;;5044466;28;20066;-62
2021/04/17 05:54:01;;;;;;;7.15;2.20;;;;;;;;;;5045245;28;20142;-61
2021/04/17 05:56:29;;;;;;;3.15;1.50;;;;;;;;;;5045970;28;20491;-62
2021/04/17 05:58:54;;;;;;;5.63;1.77;;;;;;;;;;5044433;28;20123;-61
2021/04/17 06:01:22;;;;;;;7.35;1.33;;;;;;;;;;5043000;28;20036;-60
2021/04/17 06:03:48;;;;;;;8.20;2.17;;;;;;;;;;5045608;28;20025;-60
2021/04/17 06:06:16;;;;;;;10.93;2.17;;;;;;;;;;5043653;28;20137;-60
2021/04/17 06:08:42;;;;;;;9.68;1.75;;;;;;;;;;5044056;28;20036;-61
2021/04/17 06:11:13;;;;;;;14.52;2.25;;;;;;;;;;5045249;28;20032;-61
2021/04/17 06:13:38;;;;;;;7.43;1.42;;;;;;;;;;5045475;28;20040;-61
2021/04/17 06:16:09;;;;;;;10.73;2.08;;;;;;;;;;5046443;28;20121;-61
2021/04/17 06:18:34;;;;;;;9.63;2.47;;;;;;;;;;5036844;28;20037;-61
2021/04/17 06:21:00;;;;;;;7.47;1.48;;;;;;;;;;5046086;28;20521;-65
2021/04/17 06:23:29;;;;;;;5.82;1.98;;;;;;;;;;5044996;28;20055;-62
2021/04/17 06:25:57;;;;;;;8.77;1.90;;;;;;;;;;5061713;28;20040;-61
2021/04/17 06:28:25;;;;;;;10.10;2.50;;;;;;;;;;5045721;28;20037;-63
2021/04/17 06:30:53;;;;;;;13.48;1.95;;;;;;;;;;5045569;28;20147;-60
2021/04/17 06:33:19;;;;;;;7.85;1.98;;;;;;;;;;5042184;28;20556;-62
2021/04/17 06:35:47;;;;;;;10.95;2.45;;;;;;;;;;5038520;28;20104;-61
2021/04/17 06:38:15;;;;;;;8.77;2.30;;;;;;;;;;5045446;28;20032;-61
2021/04/17 06:40:42;;;;;;;10.43;2.08;;;;;;;;;;5044719;28;20051;-60
2021/04/17 06:43:10;;;;;;;8.15;2.22;;;;;;;;;;5042112;28;20175;-61
2021/04/17 06:45:38;;;;;;;9.45;2.40;;;;;;;;;;5046581;28;20024;-61
2021/04/17 06:48:10;;;;;;;5.72;1.80;;;;;;;;;;5043598;28;20028;-63
2021/04/17 06:50:38;;;;;;;7.13;1.77;;;;;;;;;;5030027;28;20519;-63
2021/04/17 06:53:06;;;;;;;15.18;2.20;;;;;;;;;;5043868;28;20081;-64
2021/04/17 06:55:32;;;;;;;8.65;2.58;;;;;;;;;;5042930;28;20032;-61
2021/04/17 06:57:59;;;;;;;5.60;2.10;;;;;;;;;;5042627;28;20043;-61
2021/04/17 07:00:25;;;;;;;8.57;2.28;;;;;;;;;;5042163;28;20102;-61
2021/04/17 07:02:51;;;;;;;9.82;1.95;;;;;;;;;;5044895;28;20407;-61
2021/04/17 07:05:16;;;;;;;9.90;2.08;;;;;;;;;;5045865;28;20024;-62
2021/04/17 07:07:42;;;;;;;9.63;2.15;;;;;;;;;;5043762;28;20043;-61
2021/04/17 07:10:08;;;;;;;7.53;2.05;;;;;;;;;;5043748;28;20117;-61
2021/04/17 07:12:35;;;;;;;11.80;2.38;;;;;;;;;;5042879;28;20057;-62
2021/04/17 07:15:08;;;;;;;11.77;2.00;;;;;;;;;;5045841;28;20029;-61
2021/04/17 07:17:35;;;;;;;6.55;1.85;;;;;;;;;;5044415;28;20028;-62
2021/04/17 07:20:09;;;;;;;4.88;1.90;;;;;;;;;;5045300;28;20037;-62
2021/04/17 07:22:36;;;;;;;13.77;2.15;;;;;;;;;;5044596;28;21892;-62
2021/04/17 07:25:05;;;;;;;6.72;1.73;;;;;;;;;;5044287;28;21311;-62
2021/04/17 07:27:40;;;;;;;5.50;1.88;;;;;;;;;;5044488;28;20048;-62
2021/04/17 07:30:14;;;;;;;5.90;1.90;;;;;;;;;;5038227;28;20105;-61
2021/04/17 07:32:40;;;;;;;5.97;1.70;;;;;;;;;;5044467;28;20029;-62
2021/04/17 07:35:06;;;;;;;5.07;1.77;;;;;;;;;;5044465;28;20054;-62
2021/04/17 07:37:32;;;;;;;6.85;1.83;;;;;;;;;;5042395;28;20017;-61
2021/04/17 07:40:18;;;;;;;9.52;2.13;;;;;;;;;;5030040;28;20033;-60
2021/04/17 07:42:44;;;;;;;5.28;1.60;;;;;;;;;;5043852;28;20037;-63
2021/04/17 07:45:30;;;;;;;5.03;1.77;;;;;;;;;;5042083;28;21011;-62
2021/04/17 07:47:59;;;;;;;4.25;1.67;;;;;;;;;;5043006;28;20056;-62
2021/04/17 07:50:37;;;;;;;8.50;1.73;;;;;;;;;;5043483;28;20556;-62
2021/04/17 07:53:22;;;;;;;7.75;1.88;;;;;;;;;;5041818;28;20040;-62
2021/04/17 07:55:50;;;;;;;8.65;1.70;;;;;;;;;;5059354;28;20024;-63
2021/04/17 07:58:21;;;;;;;7.28;1.85;;;;;;;;;;5042292;28;20084;-63
2021/04/17 08:00:47;;;;;;;1.90;1.13;;;;;;;;;;5041496;28;20072;-63
2021/04/17 08:03:16;;;;;;;4.50;1.75;;;;;;;;;;5043594;28;20028;-63
2021/04/17 08:05:44;;;;;;;3.70;1.15;;;;;;;;;;5043880;28;20033;-62
2021/04/17 08:08:10;;;;;;;5.63;2.00;;;;;;;;;;5043504;28;20094;-64
2021/04/17 08:10:36;;;;;;;7.13;2.50;;;;;;;;;;5035510;28;20028;-62
2021/04/17 08:13:07;;;;;;;7.13;1.98;;;;;;;;;;5044465;28;20045;-62
2021/04/17 08:15:33;;;;;;;4.35;1.80;;;;;;;;;;5029916;28;20063;-62
2021/04/17 08:17:58;;;;;;;4.53;1.55;;;;;;;;;;5042347;28;20391;-62
2021/04/17 08:20:27;;;;;;;4.18;1.13;;;;;;;;;;5042457;28;20216;-62
2021/04/17 08:22:53;;;;;;;4.85;1.50;;;;;;;;;;5042250;28;20048;-63
2021/04/17 08:25:19;;;;;;;6.72;2.00;;;;;;;;;;5043793;28;21044;-63
2021/04/17 08:27:44;;;;;;;8.05;2.17;;;;;;;;;;5037822;28;20500;-61
2021/04/17 08:30:20;;;;;;;5.47;1.70;;;;;;;;;;5044890;28;20068;-63
2021/04/17 08:32:48;;;;;;;7.15;1.98;;;;;;;;;;5041810;28;20096;-64
2021/04/17 08:35:17;;;;;;;4.35;1.50;;;;;;;;;;5043074;28;20031;-63
2021/04/17 08:38:07;;;;;;;7.13;1.63;;;;;;;;;;5043701;28;20059;-62
2021/04/17 08:40:35;;;;;;;5.68;1.98;;;;;;;;;;5044201;28;20758;-63
2021/04/17 08:43:10;;;;;;;6.47;2.00;;;;;;;;;;5041281;28;20509;-62
2021/04/17 08:46:12;;;;;;;8.98;2.28;;;;;;;;;;5042497;28;20043;-62
2021/04/17 08:48:47;;;;;;;3.97;1.42;;;;;;;;;;5009126;28;20164;-63
2021/04/17 08:51:25;;;;;;;5.85;1.50;;;;;;;;;;5045112;28;20036;-63
2021/04/17 08:54:02;;;;;;;8.77;2.45;;;;;;;;;;5043495;28;20094;-64
2021/04/17 08:56:47;;;;;;;4.63;1.63;;;;;;;;;;5042459;28;20021;-63
2021/04/17 08:59:15;;;;;;;5.03;1.77;;;;;;;;;;5041290;28;20696;-62
2021/04/17 09:01:44;;;;;;;8.98;1.73;;;;;;;;;;5036858;28;20044;-62
2021/04/17 09:04:10;;;;;;;7.22;1.45;;;;;;;;;;5043953;28;20048;-63
2021/04/17 09:06:40;;;;;;;2.72;1.40;;;;;;;;;;5045495;28;20058;-62
2021/04/17 09:09:18;;;;;;;3.72;1.38;;;;;;;;;;5042429;28;20489;-62
2021/04/17 09:11:47;;;;;;;8.52;1.40;;;;;;;;;;5032791;28;20087;-63
2021/04/17 09:14:32;;;;;;;4.90;1.63;;;;;;;;;;5004107;28;20073;-62
2021/04/17 09:17:02;;;;;;;4.13;1.50;;;;;;;;;;4973925;28;21088;-63
2021/04/17 09:19:46;;;;;;;6.32;1.60;;;;;;;;;;4987744;28;20573;-64
2021/04/17 09:22:23;;;;;;;10.82;1.75;;;;;;;;;;4979010;28;20029;-64
2021/04/17 09:24:49;;;;;;;5.05;1.52;;;;;;;;;;4974472;28;20034;-63
2021/04/17 09:27:24;;;;;;;5.78;1.52;;;;;;;;;;4973366;28;20022;-62
2021/04/17 09:29:56;;;;;;;4.57;1.50;;;;;;;;;;4980355;28;20046;-63
2021/04/17 09:32:22;;;;;;;3.10;1.70;;;;;;;;;;4994879;28;20074;-63
2021/04/17 09:34:47;;;;;;;4.53;1.48;;;;;;;;;;4980896;28;20149;-63
2021/04/17 09:37:13;;;;;;;3.28;1.50;;;;;;;;;;4994001;28;20039;-63
2021/04/17 09:39:43;;;;;;;3.35;1.00;;;;;;;;;;4980696;28;20054;-63
2021/04/17 09:42:11;;;;;;;3.95;1.50;;;;;;;;;;4979327;28;20034;-64
2021/04/17 09:44:44;;;;;;;5.22;1.63;;;;;;;;;;4980806;28;20081;-64
2021/04/17 09:47:15;;;;;;;7.60;1.63;;;;;;;;;;4969461;28;20030;-64
2021/04/17 09:49:42;;;;;;;3.63;1.40;;;;;;;;;;4985279;28;20526;-63
2021/04/17 09:52:09;;;;;;;3.20;1.00;;;;;;;;;;4994733;28;20036;-63
2021/04/17 09:54:35;;;;;;;4.00;1.27;;;;;;;;;;4980026;28;20046;-62
2021/04/17 09:57:07;;;;;;;3.47;1.40;;;;;;;;;;4979268;28;20030;-63
2021/04/17 09:59:33;;;;;;;3.65;1.13;;;;;;;;;;4995868;28;20034;-62
2021/04/17 10:01:59;;;;;;;4.32;1.20;;;;;;;;;;4977994;28;20065;-63
2021/04/17 10:04:46;;;;;;;5.35;1.30;;;;;;;;;;4994833;28;20114;-65
2021/04/17 10:07:12;;;;;;;3.65;1.45;;;;;;;;;;4995420;28;20422;-63
2021/04/17 10:09:40;;;;;;;4.22;1.60;;;;;;;;;;4975720;28;20041;-63
2021/04/17 10:12:07;;;;;;;8.27;1.95;;;;;;;;;;4965944;28;20065;-62
2021/04/17 10:14:35;;;;;;;3.58;1.38;;;;;;;;;;4984013;28;20053;-63
2021/04/17 10:17:02;;;;;;;5.55;1.08;;;;;;;;;;4980929;28;20084;-66
2021/04/17 10:19:30;;;;;;;2.35;0.90;;;;;;;;;;4993803;28;20042;-63
2021/04/17 10:21:59;;;;;;;2.45;1.05;;;;;;;;;;4976652;28;20033;-62
2021/04/17 10:24:31;;;;;;;3.67;1.27;;;;;;;;;;4986299;28;20040;-63
2021/04/17 10:27:04;;;;;;;4.53;1.58;;;;;;;;;;4980746;28;20052;-63
2021/04/17 10:29:32;;;;;;;4.63;1.08;;;;;;;;;;4980515;28;20140;-64
2021/04/17 10:32:01;;;;;;;3.65;1.30;;;;;;;;;;4966962;28;20038;-64
2021/04/17 10:34:32;;;;;;;4.68;1.90;;;;;;;;;;4980238;28;20030;-63
2021/04/17 10:37:01;;;;;;;4.57;1.40;;;;;;;;;;4980430;28;20050;-65
2021/04/17 10:39:31;;;;;;;2.42;1.25;;;;;;;;;;4995159;28;20030;-63
2021/04/17 10:41:58;;;;;;;2.17;1.27;;;;;;;;;;4992308;28;20120;-65
2021/04/17 10:44:24;;;;;;;2.55;1.02;;;;;;;;;;4993370;28;20030;-63
2021/04/17 10:46:50;;;;;;;2.25;1.10;;;;;;;;;;4977711;28;20948;-62
2021/04/17 10:49:35;;;;;;;5.05;1.55;;;;;;;;;;4979611;28;20144;-62
2021/04/17 10:52:03;;;;;;;3.65;1.40;;;;;;;;;;4983081;28;20569;-62
2021/04/17 10:54:29;;;;;;;3.78;1.10;;;;;;;;;;4978859;28;20034;-64
2021/04/17 10:56:59;;;;;;;5.63;1.38;;;;;;;;;;4978716;28;20053;-63
2021/04/17 10:59:27;;;;;;;5.60;1.67;;;;;;;;;;4978101;28;20029;-62
2021/04/17 11:02:04;;;;;;;4.50;1.13;;;;;;;;;;4977222;28;20026;-62
2021/04/17 11:04:43;;;;;;;3.55;1.27;;;;;;;;;;4979510;28;20026;-62
2021/04/17 11:07:09;;;;;;;7.13;1.50;;;;;;;;;;4978911;28;20172;-63
2021/04/17 11:09:44;;;;;;;2.78;1.63;;;;;;;;;;4979700;28;20038;-62
2021/04/17 11:12:12;;;;;;;5.28;1.73;;;;;;;;;;4979196;28;20093;-65
2021/04/17 11:14:38;;;;;;;4.30;1.10;;;;;;;;;;4983201;28;20184;-64
2021/04/17 11:17:10;;;;;;;5.32;1.35;;;;;;;;;;4961289;28;20042;-64
2021/04/17 11:19:41;;;;;;;1.63;1.13;;;;;;;;;;4979407;28;20082;-64
2021/04/17 11:22:07;;;;;;;2.33;1.27;;;;;;;;;;4978668;28;20030;-64
2021/04/17 11:24:32;;;;;;;4.88;1.40;;;;;;;;;;4985965;28;20470;-64
2021/04/17 11:27:00;;;;;;;7.75;1.35;;;;;;;;;;4978303;28;20470;-65
2021/04/17 11:29:30;;;;;;;3.60;1.40;;;;;;;;;;4995667;28;20350;-65
2021/04/17 11:31:58;;;;;;;6.60;1.48;;;;;;;;;;4979054;28;20053;-62
2021/04/17 11:34:24;;;;;;;6.00;1.13;;;;;;;;;;4979337;28;20037;-63
2021/04/17 11:36:50;;;;;;;3.05;1.17;;;;;;;;;;4978704;28;20036;-63
2021/04/17 11:39:20;;;;;;;3.03;1.10;;;;;;;;;;4977877;28;20030;-62
2021/04/17 11:41:46;;;;;;;2.55;1.20;;;;;;;;;;4978009;28;20030;-65
2021/04/17 11:44:17;;;;;;;4.30;1.50;;;;;;;;;;4977877;28;20026;-62
2021/04/17 11:46:45;;;;;;;3.17;1.05;;;;;;;;;;4975575;28;20042;-65
2021/04/17 11:49:14;;;;;;;3.45;1.60;;;;;;;;;;4980331;28;20398;-65
2021/04/17 11:51:40;;;;;;;4.40;1.25;;;;;;;;;;4978662;28;20121;-64
2021/04/17 11:54:08;;;;;;;2.22;1.13;;;;;;;;;;4980448;28;20032;-63
2021/04/17 11:56:34;;;;;;;3.00;1.20;;;;;;;;;;4993314;28;20041;-64
2021/04/17 11:58:59;;;;;;;2.90;1.52;;;;;;;;;;4992824;28;20489;-64
2021/04/17 12:01:25;;;;;;;4.40;1.10;;;;;;;;;;4960805;28;20050;-64
2021/04/17 12:03:50;;;;;;;1.80;1.00;;;;;;;;;;4964956;28;20038;-63
2021/04/17 12:06:16;;;;;;;3.03;1.10;;;;;;;;;;4979786;28;21684;-62
2021/04/17 12:08:42;;;;;;;3.42;1.33;;;;;;;;;;4978819;28;20030;-63
2021/04/17 12:11:08;;;;;;;4.43;1.30;;;;;;;;;;4978633;28;20053;-63
2021/04/17 12:13:36;;;;;;;5.20;1.40;;;;;;;;;;4962224;28;20924;-63
2021/04/17 12:16:04;;;;;;;2.25;1.00;;;;;;;;;;4993561;28;20031;-64
2021/04/17 12:18:30;;;;;;;4.15;1.33;;;;;;;;;;4975500;28;20758;-64
2021/04/17 12:20:58;;;;;;;3.92;1.20;;;;;;;;;;4979754;28;20033;-62
2021/04/17 12:23:26;;;;;;;1.85;1.08;;;;;;;;;;4991998;28;20069;-63
2021/04/17 12:25:54;;;;;;;4.95;0.88;;;;;;;;;;4977416;28;20038;-63
2021/04/17 12:28:22;;;;;;;2.15;1.17;;;;;;;;;;4982839;28;20034;-64
2021/04/17 12:30:55;;;;;;;2.97;1.48;;;;;;;;;;4977724;28;20033;-63
2021/04/17 12:33:20;;;;;;;2.17;1.13;;;;;;;;;;4982640;28;20132;-65
2021/04/17 12:35:49;;;;;;;2.35;1.08;;;;;;;;;;4978372;28;20034;-65
2021/04/17 12:38:14;;;;;;;6.68;1.35;;;;;;;;;;4978090;28;20384;-65
2021/04/17 12:40:40;;;;;;;3.20;1.30;;;;;;;;;;4976602;28;20048;-63
2021/04/17 12:43:07;;;;;;;3.78;1.17;;;;;;;;;;4978084;28;20022;-63
2021/04/17 12:45:35;;;;;;;3.97;1.10;;;;;;;;;;4978088;28;20026;-64
2021/04/17 12:48:03;;;;;;;3.22;1.38;;;;;;;;;;4975785;28;20033;-63
2021/04/17 12:50:31;;;;;;;4.25;1.40;;;;;;;;;;4975317;28;20030;-64
2021/04/17 12:52:57;;;;;;;2.92;1.33;;;;;;;;;;4976918;28;20042;-65
2021/04/17 12:55:23;;;;;;;3.80;1.20;;;;;;;;;;4992354;28;20046;-63
2021/04/17 12:57:53;;;;;;;1.58;0.98;;;;;;;;;;4979876;28;20041;-63
2021/04/17 13:00:19;;;;;;;4.50;1.48;;;;;;;;;;4991169;28;20145;-64
2021/04/17 13:02:46;;;;;;;2.67;1.02;;;;;;;;;;4985527;28;20061;-63
2021/04/17 13:05:13;;;;;;;3.22;1.55;;;;;;;;;;4978365;28;22071;-64
2021/04/17 13:07:39;;;;;;;4.95;1.13;;;;;;;;;;4985576;28;20090;-63
2021/04/17 13:10:07;;;;;;;1.52;0.95;;;;;;;;;;4982991;28;20086;-63
2021/04/17 13:12:33;;;;;;;2.53;0.98;;;;;;;;;;4982067;28;20565;-63
2021/04/17 13:15:01;;;;;;;3.17;1.20;;;;;;;;;;4970996;28;20075;-63
2021/04/17 13:17:29;;;;;;;3.42;1.27;;;;;;;;;;4980751;28;20034;-64
2021/04/17 13:19:55;;;;;;;1.90;1.00;;;;;;;;;;4980729;28;20100;-63
2021/04/17 13:22:21;;;;;;;4.07;1.35;;;;;;;;;;4978786;28;20030;-63
2021/04/17 13:24:51;;;;;;;3.30;0.82;;;;;;;;;;4980921;28;20021;-63
2021/04/17 13:27:19;;;;;;;4.35;1.60;;;;;;;;;;4996406;28;20042;-64
2021/04/17 13:29:44;;;;;;;2.97;1.63;;;;;;;;;;4973548;28;20045;-63
2021/04/17 13:32:12;;;;;;;3.72;1.13;;;;;;;;;;4979868;28;20154;-64
2021/04/17 13:34:41;;;;;;;4.40;1.20;;;;;;;;;;4982372;28;20045;-72
2021/04/17 13:37:09;;;;;;;2.80;1.38;;;;;;;;;;4982650;28;20132;-64
2021/04/17 13:39:37;;;;;;;6.03;1.27;;;;;;;;;;4970078;28;20053;-64
2021/04/17 13:42:05;;;;;;;2.85;1.15;;;;;;;;;;4963365;28;20034;-63
2021/04/17 13:44:31;;;;;;;4.57;1.33;;;;;;;;;;4969127;28;20049;-63
2021/04/17 13:46:59;;;;;;;3.42;1.00;;;;;;;;;;4980423;28;20035;-63
2021/04/17 13:49:27;;;;;;;2.40;1.08;;;;;;;;;;4969023;28;20112;-63
2021/04/17 13:51:54;;;;;;;4.10;0.70;;;;;;;;;;4981538;28;20077;-63
2021/04/17 13:54:21;;;;;;;4.70;1.20;;;;;;;;;;4994130;28;20116;-63
2021/04/17 13:56:50;;;;;;;3.55;1.30;;;;;;;;;;4980679;28;20138;-63
2021/04/17 13:59:15;;;;;;;3.13;1.17;;;;;;;;;;4979071;28;20034;-63
2021/04/17 14:01:41;;;;;;;0.82;0.65;;;;;;;;;;4980219;28;20034;-63
2021/04/17 14:04:07;;;;;;;2.55;0.93;;;;;;;;;;4980010;28;20088;-63
2021/04/17 14:06:35;;;;;;;1.73;1.00;;;;;;;;;;4992568;28;20030;-63
2021/04/17 14:09:01;;;;;;;3.20;0.90;;;;;;;;;;4978264;28;20041;-63
2021/04/17 14:11:26;;;;;;;2.72;1.17;;;;;;;;;;4979289;28;20045;-63
2021/04/17 14:13:53;;;;;;;2.42;0.80;;;;;;;;;;4983079;28;20050;-66
2021/04/17 14:16:19;;;;;;;4.38;1.23;;;;;;;;;;4980510;28;20134;-65
2021/04/17 14:18:44;;;;;;;3.17;0.90;;;;;;;;;;4977929;28;20029;-64
2021/04/17 14:21:13;;;;;;;1.85;0.80;;;;;;;;;;4979354;28;20129;-64
2021/04/17 14:23:41;;;;;;;2.35;0.73;;;;;;;;;;4985125;28;20034;-63
2021/04/17 14:26:09;;;;;;;1.85;1.10;;;;;;;;;;4977543;28;20102;-64
2021/04/17 14:28:38;;;;;;;1.65;0.68;;;;;;;;;;4979448;28;20153;-65
2021/04/17 14:31:06;;;;;;;6.70;0.73;;;;;;;;;;4983954;28;20038;-65
2021/04/17 14:33:34;;;;;;;1.90;0.80;;;;;;;;;;4977708;28;20053;-65
2021/04/17 14:36:00;;;;;;;3.30;0.68;;;;;;;;;;4978699;28;20037;-65
2021/04/17 14:38:25;;;;;;;2.83;1.13;;;;;;;;;;4979345;28;20430;-65
2021/04/17 14:40:53;;;;;;;2.78;0.85;;;;;;;;;;4977673;28;20037;-64
2021/04/17 14:43:21;;;;;;;1.75;0.80;;;;;;;;;;4982987;28;20117;-63
2021/04/17 14:45:49;;;;;;;4.07;1.13;;;;;;;;;;4978892;28;20057;-64
2021/04/17 14:48:15;;;;;;;4.28;1.40;;;;;;;;;;4965541;28;20025;-64
2021/04/17 14:50:40;;;;;;;5.63;1.45;;;;;;;;;;4975181;28;20041;-62